createdAt,value
2022-07-26T00:01:48.227Z,100.00
2022-07-26T00:04:15.369Z,100.00
2022-07-26T00:06:42.591Z,100.00
2022-07-26T00:09:10.333Z,100.00
2022-07-26T00:11:37.691Z,100.00
2022-07-26T00:14:09.234Z,100.00
2022-07-26T00:16:38.078Z,100.00
2022-07-26T00:19:10.273Z,100.00
2022-07-26T00:21:38.554Z,100.00
2022-07-26T00:24:09.096Z,100.00
2022-07-26T00:26:36.382Z,100.00
2022-07-26T00:29:06.123Z,100.00
2022-07-26T00:31:33.751Z,100.00
2022-07-26T00:34:00.915Z,100.00
2022-07-26T00:36:28.994Z,100.00
2022-07-26T00:38:55.998Z,100.00
2022-07-26T00:41:23.132Z,100.00
2022-07-26T00:44:00.380Z,100.00
2022-07-26T00:46:28.340Z,100.00
2022-07-26T00:48:55.844Z,100.00
2022-07-26T00:51:23.657Z,100.00
2022-07-26T00:53:50.997Z,100.00
2022-07-26T00:56:18.733Z,100.00
2022-07-26T00:58:45.917Z,100.00
2022-07-26T01:01:13.307Z,100.00
2022-07-26T01:03:40.649Z,100.00
2022-07-26T01:06:08.878Z,100.00
2022-07-26T01:08:36.858Z,100.00
2022-07-26T01:11:03.781Z,100.00
2022-07-26T01:18:41.808Z,100.00
2022-07-26T01:21:13.911Z,100.00
2022-07-26T01:23:43.699Z,100.00
2022-07-26T01:26:11.877Z,100.00
2022-07-26T01:28:41.987Z,100.00
2022-07-26T01:31:09.318Z,100.00
2022-07-26T01:33:36.463Z,100.00
2022-07-26T01:36:03.777Z,100.00
2022-07-26T01:38:30.860Z,100.00
2022-07-26T01:40:57.949Z,100.00
2022-07-26T01:43:24.994Z,100.00
2022-07-26T01:45:54.985Z,100.00
2022-07-26T01:48:22.231Z,100.00
2022-07-26T01:50:49.367Z,100.00
2022-07-26T01:53:16.494Z,100.00
2022-07-26T01:55:43.624Z,100.00
2022-07-26T01:58:10.656Z,100.00
2022-07-26T02:00:37.743Z,100.00
2022-07-26T02:03:05.009Z,100.00
2022-07-26T02:05:32.219Z,100.00
2022-07-26T02:07:59.455Z,100.00
2022-07-26T02:10:47.778Z,100.00
2022-07-26T02:13:14.894Z,100.00
2022-07-26T02:15:42.529Z,100.00
2022-07-26T02:18:09.951Z,100.00
2022-07-26T02:20:37.022Z,100.00
2022-07-26T02:23:05.212Z,100.00
2022-07-26T02:25:32.934Z,100.00
2022-07-26T02:28:01.651Z,100.00
2022-07-26T02:30:29.458Z,100.00
2022-07-26T02:32:56.784Z,100.00
2022-07-26T02:35:23.905Z,100.00
2022-07-26T02:37:51.017Z,100.00
2022-07-26T02:40:19.480Z,100.00
2022-07-26T02:42:46.926Z,100.00
2022-07-26T02:45:13.970Z,100.00
2022-07-26T02:47:54.134Z,100.00
2022-07-26T02:50:25.838Z,100.00
2022-07-26T02:52:54.256Z,100.00
2022-07-26T02:55:26.733Z,100.00
2022-07-26T02:57:54.774Z,100.00
2022-07-26T03:00:27.508Z,100.00
2022-07-26T03:02:54.887Z,100.00
2022-07-26T03:05:22.601Z,100.00
2022-07-26T03:07:50.640Z,100.00
2022-07-26T03:10:17.794Z,100.00
2022-07-26T03:12:45.428Z,100.00
2022-07-26T03:15:12.851Z,100.00
2022-07-26T03:17:39.971Z,100.00
2022-07-26T03:20:08.407Z,100.00
2022-07-26T03:22:35.515Z,100.00
2022-07-26T03:25:02.615Z,100.00
2022-07-26T03:27:29.768Z,100.00
2022-07-26T03:29:56.741Z,100.00
2022-07-26T03:32:23.839Z,100.00
2022-07-26T03:34:51.336Z,100.00
2022-07-26T03:37:19.034Z,100.00
2022-07-26T03:39:46.245Z,100.00
2022-07-26T03:42:15.494Z,100.00
2022-07-26T03:44:42.627Z,100.00
2022-07-26T03:47:09.692Z,100.00
2022-07-26T03:49:36.768Z,100.00
2022-07-26T03:52:04.497Z,100.00
2022-07-26T03:54:31.800Z,100.00
2022-07-26T03:56:58.824Z,100.00
2022-07-26T03:59:25.823Z,100.00
2022-07-26T04:01:52.907Z,100.00
2022-07-26T04:04:25.171Z,100.00
2022-07-26T04:06:52.677Z,100.00
2022-07-26T04:09:20.333Z,100.00
2022-07-26T04:11:48.690Z,100.00
2022-07-26T04:14:16.569Z,100.00
2022-07-26T04:16:44.054Z,100.00
2022-07-26T04:19:11.459Z,100.00
2022-07-26T04:21:38.826Z,100.00
2022-07-26T04:24:07.019Z,100.00
2022-07-26T04:26:34.963Z,100.00
2022-07-26T04:29:02.412Z,100.00
2022-07-26T04:31:29.389Z,100.00
2022-07-26T04:34:03.711Z,100.00
2022-07-26T04:36:30.729Z,100.00
2022-07-26T04:38:57.802Z,100.00
2022-07-26T04:41:25.065Z,100.00
2022-07-26T04:43:52.099Z,100.00
2022-07-26T04:46:19.617Z,100.00
2022-07-26T04:48:46.765Z,100.00
2022-07-26T04:51:13.834Z,100.00
2022-07-26T04:53:40.897Z,100.00
2022-07-26T04:56:08.360Z,100.00
2022-07-26T04:58:35.407Z,100.00
2022-07-26T05:01:09.922Z,100.00
2022-07-26T05:03:37.926Z,100.00
2022-07-26T05:06:05.248Z,100.00
2022-07-26T05:08:32.301Z,100.00
2022-07-26T05:10:59.378Z,100.00
2022-07-26T05:13:30.324Z,100.00
2022-07-26T05:16:00.251Z,100.00
2022-07-26T05:18:31.471Z,100.00
2022-07-26T05:20:59.117Z,100.00
2022-07-26T05:23:26.140Z,100.00
2022-07-26T05:25:53.249Z,100.00
2022-07-26T05:28:20.311Z,100.00
2022-07-26T05:30:47.560Z,100.00
2022-07-26T05:33:16.707Z,100.00
2022-07-26T05:35:44.343Z,100.00
2022-07-26T05:38:11.762Z,100.00
2022-07-26T05:40:38.954Z,100.00
2022-07-26T05:43:06.057Z,100.00
2022-07-26T05:45:33.316Z,100.00
2022-07-26T05:48:00.560Z,100.00
2022-07-26T05:50:27.736Z,100.00
2022-07-26T05:52:54.745Z,100.00
2022-07-26T05:55:23.073Z,100.00
2022-07-26T05:57:50.159Z,100.00
2022-07-26T06:00:17.706Z,100.00
2022-07-26T06:02:44.840Z,100.00
2022-07-26T06:05:12.056Z,100.00
2022-07-26T06:07:39.107Z,100.00
2022-07-26T06:10:07.016Z,100.00
2022-07-26T06:12:34.045Z,100.00
2022-07-26T06:15:01.222Z,100.00
2022-07-26T06:17:30.576Z,100.00
2022-07-26T06:19:58.693Z,100.00
2022-07-26T06:22:26.638Z,100.00
2022-07-26T06:24:53.602Z,100.00
2022-07-26T06:27:20.747Z,100.00
2022-07-26T06:29:49.220Z,100.00
2022-07-26T06:32:16.425Z,100.00
2022-07-26T06:34:43.495Z,100.00
2022-07-26T06:37:10.551Z,100.00
2022-07-26T06:39:37.729Z,100.00
2022-07-26T06:42:07.686Z,100.00
2022-07-26T06:44:35.305Z,100.00
2022-07-26T06:47:02.456Z,100.00
2022-07-26T06:49:29.562Z,100.00
2022-07-26T06:51:57.978Z,100.00
2022-07-26T06:54:25.036Z,100.00
2022-07-26T06:56:52.306Z,100.00
2022-07-26T06:59:19.366Z,100.00
2022-07-26T07:01:58.066Z,91.97
2022-07-26T07:04:30.144Z,95.49
2022-07-26T07:07:02.718Z,95.52
2022-07-26T07:09:35.091Z,87.71
2022-07-26T07:14:39.677Z,86.86
2022-07-26T07:17:10.731Z,93.49
2022-07-26T07:19:41.154Z,86.15
2022-07-26T07:22:11.988Z,86.26
2022-07-26T07:24:41.683Z,85.65
2022-07-26T07:27:10.763Z,86.72
2022-07-26T07:29:41.447Z,81.22
2022-07-26T07:32:15.745Z,82.98
2022-07-26T07:34:47.911Z,85.12
2022-07-26T07:37:17.034Z,81.79
2022-07-26T07:39:44.659Z,79.29
2022-07-26T07:42:19.780Z,82.47
2022-07-26T07:44:47.862Z,79.73
2022-07-26T07:47:15.042Z,82.08
2022-07-26T07:49:42.156Z,80.08
2022-07-26T07:52:09.336Z,82.22
2022-07-26T07:54:36.387Z,79.29
2022-07-26T07:57:03.690Z,81.05
2022-07-26T07:59:31.066Z,80.18
2022-07-26T08:01:59.061Z,78.12
2022-07-26T08:04:26.329Z,77.41
2022-07-26T08:06:53.481Z,79.58
2022-07-26T08:09:20.641Z,76.75
2022-07-26T08:11:50.518Z,75.54
2022-07-26T08:14:19.738Z,75.08
2022-07-26T08:16:47.202Z,74.49
2022-07-26T08:19:15.046Z,73.28
2022-07-26T08:21:43.036Z,73.80
2022-07-26T08:24:10.979Z,75.59
2022-07-26T08:26:39.026Z,75.19
2022-07-26T08:29:06.094Z,74.38
2022-07-26T08:31:33.286Z,67.82
2022-07-26T08:34:00.415Z,69.80
2022-07-26T08:36:32.239Z,71.92
2022-07-26T08:39:00.912Z,70.68
2022-07-26T08:41:28.706Z,68.78
2022-07-26T08:43:55.747Z,68.27
2022-07-26T08:46:27.688Z,71.25
2022-07-26T08:48:58.382Z,70.62
2022-07-26T08:51:27.281Z,72.03
2022-07-26T08:54:05.888Z,74.02
2022-07-26T08:56:40.671Z,69.96
2022-07-26T08:59:21.224Z,70.45
2022-07-26T09:02:05.295Z,63.59
2022-07-26T09:04:44.707Z,62.54
2022-07-26T09:07:18.743Z,65.67
2022-07-26T09:10:12.627Z,66.80
2022-07-26T09:12:42.539Z,66.33
2022-07-26T09:15:22.736Z,67.23
2022-07-26T09:17:57.967Z,66.00
2022-07-26T09:20:32.344Z,66.89
2022-07-26T09:23:08.082Z,61.68
2022-07-26T09:25:43.210Z,60.72
2022-07-26T09:28:31.920Z,59.57
2022-07-26T09:31:04.203Z,61.18
2022-07-26T09:33:51.845Z,62.78
2022-07-26T09:36:19.589Z,64.86
2022-07-26T09:39:03.335Z,64.41
2022-07-26T09:41:37.304Z,59.92
2022-07-26T09:44:26.264Z,63.57
2022-07-26T09:46:59.511Z,64.10
2022-07-26T09:49:32.544Z,59.91
2022-07-26T09:52:22.025Z,59.52
2022-07-26T09:54:50.063Z,56.79
2022-07-26T09:57:21.784Z,56.32
2022-07-26T09:59:48.805Z,58.86
2022-07-26T10:02:15.936Z,58.31
2022-07-26T10:04:44.502Z,59.18
2022-07-26T10:07:11.668Z,58.12
2022-07-26T10:10:17.434Z,58.62
2022-07-26T10:12:46.877Z,58.63
2022-07-26T10:15:42.969Z,57.42
2022-07-26T10:18:39.035Z,57.65
2022-07-26T10:21:27.242Z,62.15
2022-07-26T10:24:03.739Z,61.72
2022-07-26T10:26:36.311Z,59.15
2022-07-26T10:29:18.339Z,60.76
2022-07-26T10:32:04.061Z,62.42
2022-07-26T10:34:39.493Z,62.41
2022-07-26T10:37:19.934Z,64.67
2022-07-26T10:39:47.085Z,63.25
2022-07-26T10:42:16.976Z,63.50
2022-07-26T10:44:47.012Z,64.66
2022-07-26T10:47:21.061Z,64.53
2022-07-26T10:50:00.161Z,63.85
2022-07-26T10:52:31.797Z,63.43
2022-07-26T10:55:07.457Z,64.19
2022-07-26T10:57:41.370Z,63.11
2022-07-26T11:00:26.544Z,65.95
2022-07-26T11:02:59.154Z,64.86
2022-07-26T11:05:34.976Z,62.97
2022-07-26T11:08:09.067Z,61.88
2022-07-26T11:10:47.530Z,59.29
2022-07-26T11:13:26.336Z,58.53
2022-07-26T11:16:04.115Z,59.50
2022-07-26T11:18:38.909Z,58.02
2022-07-26T11:21:17.590Z,60.08
2022-07-26T11:23:51.218Z,58.45
2022-07-26T11:26:25.742Z,58.68
2022-07-26T11:29:06.143Z,59.78
2022-07-26T11:31:55.811Z,61.01
2022-07-26T11:34:35.490Z,59.17
2022-07-26T11:37:06.005Z,59.43
2022-07-26T11:39:36.297Z,57.89
2022-07-26T11:42:19.925Z,59.39
2022-07-26T11:44:49.824Z,60.18
2022-07-26T11:47:25.199Z,57.61
2022-07-26T11:50:12.968Z,59.84
2022-07-26T11:52:41.888Z,56.71
2022-07-26T11:55:09.699Z,58.35
2022-07-26T11:57:36.857Z,58.75
2022-07-26T12:00:06.373Z,59.48
2022-07-26T12:02:33.559Z,58.98
2022-07-26T12:05:22.729Z,60.44
2022-07-26T12:08:02.966Z,62.22
2022-07-26T12:10:31.031Z,60.81
2022-07-26T12:13:16.442Z,59.31
2022-07-26T12:15:53.813Z,64.88
2022-07-26T12:18:34.127Z,60.48
2022-07-26T12:21:09.653Z,60.39
2022-07-26T12:23:50.891Z,64.87
2022-07-26T12:26:29.266Z,69.20
2022-07-26T12:28:58.610Z,72.61
2022-07-26T12:31:30.637Z,77.56
2022-07-26T12:33:59.531Z,79.02
2022-07-26T12:36:29.423Z,80.53
2022-07-26T12:39:00.555Z,82.29
2022-07-26T12:41:47.435Z,83.67
2022-07-26T12:44:15.375Z,86.25
2022-07-26T12:46:46.627Z,85.40
2022-07-26T12:49:13.944Z,86.98
2022-07-26T12:51:41.412Z,86.12
2022-07-26T12:54:09.498Z,85.93
2022-07-26T12:56:36.750Z,86.76
2022-07-26T12:59:03.825Z,85.61
2022-07-26T13:01:32.933Z,85.14
2022-07-26T13:04:01.167Z,85.63
2022-07-26T13:06:28.560Z,87.56
2022-07-26T13:08:56.616Z,89.27
2022-07-26T13:11:24.070Z,87.93
2022-07-26T13:13:51.160Z,89.45
2022-07-26T13:16:18.212Z,91.23
2022-07-26T13:18:46.443Z,93.96
2022-07-26T13:21:13.462Z,92.03
2022-07-26T13:23:40.504Z,91.67
2022-07-26T13:26:09.222Z,90.76
2022-07-26T13:28:39.980Z,89.42
2022-07-26T13:31:07.310Z,88.54
2022-07-26T13:33:34.503Z,88.42
2022-07-26T13:36:01.566Z,84.87
2022-07-26T13:38:31.381Z,84.53
2022-07-26T13:40:58.374Z,84.95
2022-07-26T13:43:25.726Z,82.43
2022-07-26T13:45:52.701Z,83.08
2022-07-26T13:48:20.386Z,82.61
2022-07-26T13:50:47.418Z,82.68
2022-07-26T13:53:14.852Z,82.74
2022-07-26T13:55:42.430Z,82.47
2022-07-26T13:58:10.378Z,82.54
2022-07-26T14:00:38.361Z,78.54
2022-07-26T14:03:05.481Z,78.32
2022-07-26T14:05:32.992Z,80.49
2022-07-26T14:08:00.062Z,80.22
2022-07-26T14:10:27.217Z,81.21
2022-07-26T14:12:54.452Z,81.43
2022-07-26T14:15:23.313Z,80.64
2022-07-26T14:17:52.783Z,80.78
2022-07-26T14:20:21.719Z,82.24
2022-07-26T14:22:53.959Z,84.42
2022-07-26T14:25:24.167Z,84.79
2022-07-26T14:27:54.382Z,84.73
2022-07-26T14:30:22.594Z,82.33
2022-07-26T14:32:49.976Z,83.59
2022-07-26T14:35:17.927Z,83.42
2022-07-26T14:37:46.239Z,82.55
2022-07-26T14:40:26.021Z,85.25
2022-07-26T14:42:53.096Z,87.13
2022-07-26T14:45:20.169Z,86.69
2022-07-26T14:47:47.286Z,84.29
2022-07-26T14:51:08.277Z,84.37
2022-07-26T15:16:07.647Z,83.10
2022-07-26T15:18:35.988Z,80.43
2022-07-26T15:21:03.309Z,80.90
2022-07-26T15:23:31.136Z,76.80
2022-07-26T15:25:58.240Z,75.47
2022-07-26T15:28:25.301Z,74.22
2022-07-26T15:30:53.013Z,69.98
2022-07-26T15:33:20.747Z,72.12
2022-07-26T15:35:47.851Z,70.83
2022-07-26T15:38:14.940Z,69.28
2022-07-26T15:40:42.162Z,71.11
2022-07-26T15:43:09.219Z,71.12
2022-07-26T15:45:37.484Z,72.06
2022-07-26T15:48:15.851Z,72.99
2022-07-26T15:50:48.057Z,73.50
2022-07-26T15:53:16.747Z,73.74
2022-07-26T15:55:43.826Z,74.84
2022-07-26T15:58:10.912Z,75.76
2022-07-26T16:00:38.021Z,75.27
2022-07-26T16:03:05.140Z,74.48
2022-07-26T16:05:33.201Z,74.22
2022-07-26T16:08:00.699Z,72.17
2022-07-26T16:10:27.767Z,65.81
2022-07-26T16:12:54.762Z,61.64
2022-07-26T16:15:21.847Z,63.01
2022-07-26T16:17:48.821Z,62.33
2022-07-26T16:20:19.406Z,64.29
2022-07-26T16:22:48.250Z,66.94
2022-07-26T16:25:16.184Z,68.12
2022-07-26T16:27:44.199Z,68.13
2022-07-26T16:30:14.717Z,68.00
2022-07-26T16:32:43.689Z,68.82
2022-07-26T16:35:12.423Z,70.35
2022-07-26T16:37:40.169Z,70.82
2022-07-26T16:40:09.416Z,71.70
2022-07-26T16:42:36.595Z,71.54
2022-07-26T16:45:04.719Z,72.02
2022-07-26T16:47:31.745Z,68.77
2022-07-26T16:49:58.808Z,67.66
2022-07-26T16:52:25.814Z,66.49
2022-07-26T16:54:52.833Z,68.62
2022-07-26T16:57:19.897Z,66.79
2022-07-26T16:59:47.708Z,66.84
2022-07-26T17:02:14.868Z,67.82
2022-07-26T17:04:41.960Z,67.83
2022-07-26T17:07:24.415Z,67.59
2022-07-26T17:09:52.460Z,68.07
2022-07-26T17:12:20.175Z,68.73
2022-07-26T17:14:47.206Z,68.90
2022-07-26T17:17:14.221Z,69.65
2022-07-26T17:19:41.260Z,70.04
2022-07-26T17:22:08.295Z,70.09
2022-07-26T17:24:35.289Z,70.34
2022-07-26T17:27:02.313Z,69.77
2022-07-26T17:29:29.393Z,69.16
2022-07-26T17:31:56.538Z,67.73
2022-07-26T17:34:23.953Z,67.93
2022-07-26T17:37:05.691Z,67.43
2022-07-26T17:39:50.760Z,67.13
2022-07-26T17:42:21.012Z,63.64
2022-07-26T17:44:48.179Z,63.97
2022-07-26T17:47:18.005Z,62.06
2022-07-26T17:49:55.824Z,62.04
2022-07-26T17:52:23.985Z,61.73
2022-07-26T17:54:51.033Z,62.85
2022-07-26T17:57:18.028Z,63.65
2022-07-26T17:59:45.132Z,63.38
2022-07-26T18:02:12.265Z,63.37
2022-07-26T18:04:39.337Z,63.27
2022-07-26T18:07:06.356Z,64.16
2022-07-26T18:09:33.461Z,64.43
2022-07-26T18:12:00.646Z,64.85
2022-07-26T18:14:27.711Z,65.93
2022-07-26T18:16:56.989Z,64.72
2022-07-26T18:19:24.814Z,64.37
2022-07-26T18:21:51.795Z,64.72
2022-07-26T18:24:18.877Z,64.92
2022-07-26T18:26:45.957Z,64.87
2022-07-26T18:29:15.211Z,63.72
2022-07-26T18:31:42.970Z,62.73
2022-07-26T18:34:10.007Z,62.91
2022-07-26T18:36:37.079Z,63.20
2022-07-26T18:39:05.220Z,63.41
2022-07-26T18:41:34.273Z,63.92
2022-07-26T18:44:04.108Z,63.13
2022-07-26T18:46:31.293Z,63.81
2022-07-26T18:49:01.197Z,64.36
2022-07-26T18:51:29.759Z,64.14
2022-07-26T18:53:58.918Z,64.61
2022-07-26T18:56:25.919Z,65.02
2022-07-26T18:58:53.197Z,65.81
2022-07-26T19:01:20.264Z,65.38
2022-07-26T19:03:47.384Z,66.27
2022-07-26T19:06:14.660Z,68.75
2022-07-26T19:08:41.697Z,67.93
2022-07-26T19:11:08.923Z,68.43
2022-07-26T19:13:36.035Z,69.71
2022-07-26T19:16:03.095Z,69.54
2022-07-26T19:18:30.298Z,70.19
2022-07-26T19:20:57.448Z,71.66
2022-07-26T19:23:24.550Z,72.04
2022-07-26T19:25:51.941Z,70.99
2022-07-26T19:28:19.057Z,71.14
2022-07-26T19:30:46.324Z,71.58
2022-07-26T19:33:14.375Z,73.22
2022-07-26T19:35:41.456Z,74.55
2022-07-26T19:38:08.599Z,73.18
2022-07-26T19:40:35.782Z,72.52
2022-07-26T19:43:02.938Z,72.54
2022-07-26T19:45:30.003Z,72.32
2022-07-26T19:47:57.212Z,72.74
2022-07-26T19:50:24.463Z,73.74
2022-07-26T19:52:51.524Z,73.49
2022-07-26T19:55:18.821Z,71.95
2022-07-26T19:57:46.033Z,73.29
2022-07-26T20:00:13.982Z,75.94
2022-07-26T20:02:41.985Z,76.84
2022-07-26T20:05:13.371Z,78.16
2022-07-26T20:07:40.855Z,75.54
2022-07-26T20:10:09.643Z,76.23
2022-07-26T20:12:38.899Z,75.74
2022-07-26T20:15:09.823Z,77.70
2022-07-26T20:17:39.325Z,78.83
2022-07-26T20:20:10.162Z,80.07
2022-07-26T20:22:37.430Z,81.48
2022-07-26T20:25:06.071Z,83.03
2022-07-26T20:27:33.296Z,84.12
2022-07-26T20:30:01.269Z,87.56
2022-07-26T20:32:28.534Z,87.12
2022-07-26T20:34:55.769Z,86.91
2022-07-26T20:37:23.180Z,87.50
2022-07-26T20:39:50.465Z,89.72
2022-07-26T20:42:21.620Z,83.75
2022-07-26T20:44:49.474Z,83.65
2022-07-26T20:47:16.512Z,82.84
2022-07-26T20:49:43.568Z,80.31
2022-07-26T20:52:11.428Z,78.39
2022-07-26T20:54:38.594Z,77.15
2022-07-26T20:57:05.734Z,77.08
2022-07-26T20:59:35.027Z,76.54
2022-07-26T21:02:02.289Z,76.43
2022-07-26T21:04:30.081Z,76.64
2022-07-26T21:06:57.123Z,74.58
2022-07-26T21:09:27.861Z,73.35
2022-07-26T21:11:55.221Z,75.39
2022-07-26T21:14:22.306Z,76.31
2022-07-26T21:16:49.418Z,79.90
2022-07-26T21:19:16.683Z,75.65
2022-07-26T21:21:44.220Z,73.65
2022-07-26T21:24:12.350Z,72.33
2022-07-26T21:26:39.563Z,72.02
2022-07-26T21:29:06.731Z,70.71
2022-07-26T21:31:34.175Z,69.59
2022-07-26T21:34:01.400Z,69.42
2022-07-26T21:36:28.637Z,69.74
2022-07-26T21:38:55.808Z,70.80
2022-07-26T21:41:22.852Z,70.06
2022-07-26T21:43:49.878Z,70.60
2022-07-26T21:46:17.042Z,70.38
2022-07-26T21:48:44.205Z,70.67
2022-07-26T21:51:11.501Z,68.56
2022-07-26T21:53:38.586Z,68.98
2022-07-26T21:56:06.008Z,69.01
2022-07-26T21:58:36.610Z,68.62
2022-07-26T22:01:08.592Z,68.05
2022-07-26T22:03:38.923Z,67.16
2022-07-26T22:06:08.785Z,67.25
2022-07-26T22:08:39.225Z,65.95
2022-07-26T22:11:06.473Z,65.35
2022-07-26T22:13:33.473Z,65.97
2022-07-26T22:16:00.633Z,64.69
2022-07-26T22:18:28.125Z,63.60
2022-07-26T22:20:55.937Z,63.98
2022-07-26T22:23:23.464Z,64.35
2022-07-26T22:25:50.495Z,64.00
2022-07-26T22:28:17.966Z,63.46
2022-07-26T22:30:46.460Z,63.03
2022-07-26T22:33:13.638Z,63.87
2022-07-26T22:35:40.861Z,62.95
2022-07-26T22:38:11.944Z,62.03
2022-07-26T22:40:42.357Z,61.73
2022-07-26T22:43:11.531Z,61.46
2022-07-26T22:45:39.837Z,61.70
2022-07-26T22:48:09.388Z,62.38
2022-07-26T22:50:36.797Z,62.39
2022-07-26T22:53:04.345Z,62.78
2022-07-26T22:55:32.060Z,62.16
2022-07-26T22:57:59.708Z,61.97
2022-07-26T23:00:27.167Z,62.74
2022-07-26T23:02:54.480Z,63.02
2022-07-26T23:05:21.880Z,63.28
2022-07-26T23:07:59.190Z,63.74
2022-07-26T23:10:30.596Z,63.13
2022-07-26T23:12:58.010Z,62.60
2022-07-26T23:15:25.254Z,63.00
2022-07-26T23:17:52.390Z,63.14
2022-07-26T23:20:19.453Z,63.39
2022-07-26T23:22:46.461Z,62.81
2022-07-26T23:25:13.526Z,62.39
2022-07-26T23:27:40.648Z,63.53
2022-07-26T23:30:08.597Z,63.59
2022-07-26T23:32:35.582Z,64.15
2022-07-26T23:35:02.622Z,65.12
2022-07-26T23:37:29.676Z,64.98
2022-07-26T23:39:56.670Z,65.40
2022-07-26T23:42:24.270Z,65.23
2022-07-26T23:44:51.365Z,65.46
2022-07-26T23:47:18.427Z,66.37
2022-07-26T23:49:45.450Z,66.08
2022-07-26T23:52:12.568Z,66.77
2022-07-26T23:54:39.637Z,65.88
2022-07-26T23:57:07.012Z,65.55
2022-07-26T23:59:34.128Z,66.64
